Log in Register

Login to your account

Username *
Password *
Remember Me

Create an account

Fields marked with an asterisk (*) are required.
Name *
Username *
Password *
Verify password *
Email *
Verify email *

METAR/TAF de Chambéry

[source: ADDS]
METAR
LFLB 292200Z AUTO 01007KT 340V050 9999 FEW043 01/M03 Q1021 =
TAF LFLB 291400Z 2915/3015 34006KT 9999 BKN035 BECMG 2918/2921 VRB02KT BECMG 2922/3002 SCT035 PROB40 TEMPO 3003/3007 3000 BR
TAF
TAF LFLB 291400Z 2915/3015 34006KT 9999 BKN035 BECMG 2918/2921 VRB02KT BECMG 2922/3002 SCT035 PROB40 TEMPO 3003/3007 3000 BR =
SR / SS: 06:54 / 15:55 UTC (Lever/Coucher du soleil le 2021-11-29)

 

Webcam de l'Aéroclub - Parking Lima et SW (réactualisation : 5min)

Cliquer ici pour une animation sur les 3 dernières heures / Cliquer sur l'image pour l'agrandir dans une nouvelle fenêtre

 

Webcam de l'Aéroclub - Manche à air et WA (réactualisation : 5min)

Cliquer ici pour une animation sur les 3 dernières heures / Cliquer sur l'image pour l'agrandir dans une nouvelle fenêtre

 

JSN Boot template designed by JoomlaShine.com